This is the latest recevied weather packets stored in our database for station/object HB9SZU-6. If no packets are shown the sender has not sent any weather packets the latest 10 day(s).
| Time | Temp. | Humidity | Pressure | Rain* | Wind** | Luminosity | Snow |
|---|---|---|---|---|---|---|---|
| 1777664890 | 17.78° C | 48% | 1030.5 hPa | 0 mm | - | - | - |
| 1777661290 | 18.89° C | 45% | 1029.7 hPa | 0 mm | - | - | - |
| 1777660390 | 18.89° C | 45% | 1029.7 hPa | 0 mm | - | - | - |
| 1777659490 | 19.44° C | 44% | 1029.2 hPa | 0 mm | - | - | - |
| 1777655890 | 20.56° C | 42% | 1028.8 hPa | 0 mm | - | - | - |
| 1777654990 | 20.56° C | 41% | 1028.8 hPa | 0 mm | - | - | - |
| 1777653190 | 21.11° C | 41% | 1028.9 hPa | 0 mm | - | - | - |
| 1777652290 | 21.11° C | 40% | 1029.1 hPa | 0 mm | - | - | - |
| 1777651389 | 21.11° C | 41% | 1029.1 hPa | 0 mm | - | - | - |
| 1777649591 | 21.11° C | 40% | 1029.5 hPa | 0 mm | - | - | - |
| 1777648690 | 21.11° C | 39% | 1029.8 hPa | 0 mm | - | - | - |
| 1777647790 | 21.11° C | 39% | 1029.7 hPa | 0 mm | - | - | - |
| 1777645990 | 21.11° C | 39% | 1030.1 hPa | 0 mm | - | - | - |
| 1777645090 | 21.11° C | 39% | 1030.4 hPa | 0 mm | - | - | - |
| 1777644190 | 20.56° C | 40% | 1030.5 hPa | 0 mm | - | - | - |
| 1777643290 | 20° C | 40% | 1031.2 hPa | 0 mm | - | - | - |
| 1777642390 | 20° C | 40% | 1031.2 hPa | 0 mm | - | - | - |
| 1777641490 | 20° C | 40% | 1031.2 hPa | 0 mm | - | - | - |
| 1777640590 | 20° C | 39% | 1031.3 hPa | 0 mm | - | - | - |
| 1777638790 | 20° C | 40% | 1031.8 hPa | 0 mm | - | - | - |
| 1777637890 | 19.44° C | 41% | 1032 hPa | 0 mm | - | - | - |
| 1777636990 | 19.44° C | 41% | 1032.1 hPa | 0 mm | - | - | - |
| 1777636090 | 19.44° C | 42% | 1032.1 hPa | 0 mm | - | - | - |
| 1777635190 | 18.89° C | 42% | 1032.5 hPa | 0 mm | - | - | - |
| 1777634290 | 18.33° C | 42% | 1032.5 hPa | 0 mm | - | - | - |
* Rain latest hour (hover to see other rain measurements)
** Current wind speed in m/s (hover to see current wind gust speed)